Terminal Aerodrome Forecast
Issued by NWS Binghamton, NY

Home | Current Version | Previous Version | Text Only | Print | Product List | Glossary On
Versions: 1 2 3 4 5 6 7 8 9 10 11 12 13 14 15 16 17 18 19 20 21 22 23 24
000
FTUS41 KBGM 212000 AAA
TAFSYR
TAF AMD
KSYR 212044Z 2121/2218 30012KT P6SM -SHSN BKN035
      TEMPO 2121/2124 2SM -SHSN OVC025
     FM220200 VRB03KT P6SM SCT040 BKN150
     FM221500 11005KT P6SM OVC040 PROB30 2215/2218 3SM -FZRAPLSN BR=

USA.gov is the U.S. government's official web portal to all federal, state and local government web resources and services.